< Typhoon 196213 1962 Season Typhoon 196215 >
Typhoon 196214 (THELMA)
General InformationTrack Information on Google Maps || Disaster Info.ResourceGoogle EarthGE AnimationAtom FeedGeoJSON
Detalied Best Track (Time Zone = UTC)
Year Month Day Hour Lat. Long. Pressure (hPa) Wind (kt) Class Image Chart
1962 8 20 00 17.0 149.0 1006 0 2 -- Chart
1962 8 20 06 17.4 148.5 1002 0 9 -- Chart
1962 8 20 12 17.8 148.0 1002 0 9 -- Chart
1962 8 20 18 18.0 147.5 1000 0 9 -- Chart
1962 8 21 00 18.2 147.0 999 0 9 -- Chart
1962 8 21 06 19.0 146.6 995 0 9 -- Chart
1962 8 21 12 19.6 145.6 990 0 9 -- Chart
1962 8 21 18 20.5 144.7 990 0 9 -- Chart
1962 8 22 00 21.2 143.9 990 0 9 -- Chart
1962 8 22 06 21.8 142.8 990 0 9 -- Chart
1962 8 22 12 22.7 141.6 985 0 9 -- Chart
1962 8 22 18 23.5 140.9 980 0 9 -- Chart
1962 8 23 00 24.6 140.0 975 0 9 -- Chart
1962 8 23 06 25.2 139.1 950 0 9 -- Chart
1962 8 23 12 25.5 138.3 950 0 9 -- Chart
1962 8 23 18 26.0 137.7 950 0 9 -- Chart
1962 8 24 00 27.0 137.3 960 0 9 -- Chart
1962 8 24 06 27.7 137.1 960 0 9 -- Chart
1962 8 24 12 28.3 137.0 960 0 9 -- Chart
1962 8 24 18 29.1 136.9 960 0 9 -- Chart
1962 8 25 00 30.0 136.9 960 0 9 -- Chart
1962 8 25 06 31.3 136.8 950 0 9 -- Chart
1962 8 25 12 32.6 136.6 950 0 9 -- Chart
1962 8 25 18 33.8 136.4 955 0 9 -- Chart
1962 8 26 00 35.8 136.1 985 0 9 -- Chart
1962 8 26 06 37.6 136.5 995 0 9 -- Chart
1962 8 26 12 39.5 137.0 1000 0 2 -- Chart
1962 8 26 18 40.2 138.2 1000 0 2 -- Chart
1962 8 27 00 41.4 140.5 1003 0 6 -- Chart
1962 8 27 06 42.0 142.0 1002 0 6 -- Chart
1962 8 27 12 42.0 147.0 1000 0 6 -- Chart
1962 8 27 18 43.0 151.0 998 0 6 -- Chart
1962 8 28 00 42.6 155.0 1000 0 6 -- Chart
1962 8 28 06 42.6 156.4 992 0 6 -- Chart
1962 8 28 12 43.3 157.5 990 0 6 -- Chart
1962 8 28 18 44.4 158.0 988 0 6 -- Chart
1962 8 29 00 45.8 159.3 990 0 6 -- Chart
1962 8 29 06 45.6 160.2 990 0 6 -- Chart
1962 8 29 12 45.3 161.1 990 0 6 -- Chart
1962 8 29 18 44.9 162.0 994 0 6 -- Chart
1962 8 30 00 44.8 162.8 994 0 6 -- Chart
1962 8 30 06 45.0 163.6 994 0 6 -- Chart
1962 8 30 12 45.7 164.0 996 0 6 -- Chart
1962 8 30 18 46.5 164.5 1004 0 6 -- Chart
1962 8 31 00 47.4 166.2 1000 0 6 -- Chart
1962 8 31 06 48.0 168.0 1000 0 6 -- Chart
1962 8 31 12 49.0 170.0 1002 0 6 -- Chart
1962 8 31 18 50.0 172.6 1000 0 6 -- Chart
1962 9 1 00 51.4 175.6 1000 0 6 -- Chart
1962 9 1 06 53.5 180.0 996 0 6 -- Chart
1962 9 1 12 55.9 183.0 996 0 6 -- Chart
Japan Meteorological Agency Best Track Data | Correction Date : 1991-07-16
< Typhoon 196213 1962 Season Typhoon 196215 >

Help